createdAt,value
2023-02-14T00:02:13.412Z,100564.93
2023-02-14T00:05:02.042Z,100561.80
2023-02-14T00:07:50.641Z,100553.98
2023-02-14T00:10:39.299Z,100550.42
2023-02-14T00:13:27.961Z,100553.23
2023-02-14T00:16:05.890Z,100551.05
2023-02-14T00:19:03.696Z,100548.63
2023-02-14T00:21:52.356Z,100545.09
2023-02-14T00:24:40.985Z,100548.66
2023-02-14T00:27:29.632Z,100549.64
2023-02-14T00:30:18.332Z,100552.54
2023-02-14T00:33:07.010Z,100548.70
2023-02-14T00:35:55.646Z,100550.20
2023-02-14T00:38:44.300Z,100553.34
2023-02-14T00:41:33.600Z,100553.61
2023-02-14T00:44:22.559Z,100556.25
2023-02-14T00:46:54.266Z,100556.63
2023-02-14T00:49:42.982Z,100560.23
2023-02-14T00:52:31.687Z,100560.25
2023-02-14T00:55:20.484Z,100557.52
2023-02-14T00:58:09.086Z,100557.02
2023-02-14T01:00:58.218Z,100564.56
2023-02-14T01:03:47.689Z,100558.48
2023-02-14T01:06:36.410Z,100553.98
2023-02-14T01:09:25.045Z,100557.14
2023-02-14T01:12:13.637Z,100553.34
2023-02-14T01:15:02.544Z,100550.42
2023-02-14T01:17:51.207Z,100543.85
2023-02-14T01:20:39.863Z,100544.48
2023-02-14T01:23:28.477Z,100544.44
2023-02-14T01:26:18.361Z,100539.92
2023-02-14T01:29:07.052Z,100539.45
2023-02-14T01:31:55.733Z,100538.48
2023-02-14T01:34:44.291Z,100534.95
2023-02-14T01:37:19.900Z,100532.90
2023-02-14T01:40:12.420Z,100534.13
2023-02-14T01:43:00.974Z,100535.21
2023-02-14T01:45:49.647Z,100539.52
2023-02-14T01:48:38.338Z,100536.68
2023-02-14T01:51:28.110Z,100531.05
2023-02-14T01:54:18.472Z,100529.16
2023-02-14T01:57:11.589Z,100528.46
2023-02-14T02:00:16.661Z,100526.84
2023-02-14T02:03:06.601Z,100527.39
2023-02-14T02:05:59.420Z,100525.06
2023-02-14T02:08:59.344Z,100520.04
2023-02-14T02:11:48.540Z,100520.58
2023-02-14T02:14:37.618Z,100522.30
2023-02-14T02:17:32.798Z,100520.40
2023-02-14T02:20:48.549Z,100517.91
2023-02-14T02:23:50.826Z,100518.42
2023-02-14T02:27:13.992Z,100522.53
2023-02-14T02:30:42.741Z,100529.64
2023-02-14T02:34:06.544Z,100534.59
2023-02-14T02:37:10.184Z,100522.66
2023-02-14T02:40:10.487Z,100524.83
2023-02-14T02:43:10.913Z,100524.48
2023-02-14T02:46:21.752Z,100526.63
2023-02-14T02:49:39.036Z,100527.73
2023-02-14T02:52:57.246Z,100527.56
2023-02-14T02:56:10.644Z,100530.14
2023-02-14T02:59:04.209Z,100531.17
2023-02-14T03:02:05.451Z,100529.75
2023-02-14T03:04:57.636Z,100526.52
2023-02-14T03:07:49.168Z,100519.00
2023-02-14T03:10:39.770Z,100512.44
2023-02-14T03:13:43.102Z,100516.05
2023-02-14T03:16:40.736Z,100516.20
2023-02-14T03:20:07.259Z,100513.20
2023-02-14T03:23:04.134Z,100510.89
2023-02-14T03:26:03.696Z,100513.23
2023-02-14T03:28:59.850Z,100516.60
2023-02-14T03:31:59.750Z,100519.26
2023-02-14T03:34:58.857Z,100523.83
2023-02-14T03:37:53.351Z,100524.63
2023-02-14T03:40:48.688Z,100528.34
2023-02-14T03:43:41.997Z,100524.98
2023-02-14T03:46:35.785Z,100528.41
2023-02-14T03:49:29.752Z,100524.00
2023-02-14T03:52:19.533Z,100526.45
2023-02-14T03:55:09.905Z,100528.83
2023-02-14T03:58:06.164Z,100533.10
2023-02-14T04:01:00.321Z,100532.31
2023-02-14T04:03:50.046Z,100530.29
2023-02-14T04:06:38.674Z,100536.65
2023-02-14T04:09:27.311Z,100535.40
2023-02-14T04:12:21.662Z,100535.55
2023-02-14T04:15:13.439Z,100535.68
2023-02-14T04:18:20.327Z,100538.77
2023-02-14T04:21:09.865Z,100532.01
2023-02-14T04:23:58.467Z,100526.36
2023-02-14T04:27:09.411Z,100525.67
2023-02-14T04:29:58.326Z,100527.26
2023-02-14T04:32:47.125Z,100527.02
2023-02-14T04:35:35.847Z,100528.54
2023-02-14T04:38:24.671Z,100532.06
2023-02-14T04:41:13.303Z,100531.36
2023-02-14T04:44:01.919Z,100525.90
2023-02-14T04:46:51.122Z,100523.20
2023-02-14T04:49:39.765Z,100530.25
2023-02-14T04:52:28.533Z,100540.09
2023-02-14T04:55:17.391Z,100537.46
2023-02-14T04:58:06.105Z,100540.05
2023-02-14T05:00:54.836Z,100542.48
2023-02-14T05:03:43.564Z,100546.86
2023-02-14T05:06:33.024Z,100543.77
2023-02-14T05:09:21.983Z,100541.89
2023-02-14T05:12:10.662Z,100537.89
2023-02-14T05:14:59.294Z,100540.83
2023-02-14T05:17:47.958Z,100542.47
2023-02-14T05:20:36.578Z,100546.61
2023-02-14T05:23:12.856Z,100547.14
2023-02-14T05:26:01.476Z,100553.16
2023-02-14T05:28:50.117Z,100552.28
2023-02-14T05:31:38.836Z,100548.28
2023-02-14T05:34:28.480Z,100545.77
2023-02-14T05:37:17.035Z,100548.66
2023-02-14T05:39:48.421Z,100549.64
2023-02-14T05:42:36.979Z,100557.86
2023-02-14T05:45:25.821Z,100558.14
2023-02-14T05:48:14.963Z,100561.73
2023-02-14T05:51:06.529Z,100563.95
2023-02-14T05:53:57.118Z,100567.38
2023-02-14T05:56:45.702Z,100576.11
2023-02-14T05:59:34.399Z,100572.55
2023-02-14T06:02:23.260Z,100576.86
2023-02-14T06:05:12.411Z,100578.30
2023-02-14T06:08:01.241Z,100580.05
2023-02-14T06:10:49.839Z,100584.71
2023-02-14T06:13:40.778Z,100585.33
2023-02-14T06:16:29.483Z,100588.11
2023-02-14T06:19:15.380Z,100591.68
2023-02-14T06:22:04.296Z,100593.16
2023-02-14T06:24:36.273Z,100595.27
2023-02-14T06:27:25.010Z,100595.50
2023-02-14T06:29:53.554Z,100589.16
2023-02-14T06:32:42.197Z,100589.02
2023-02-14T06:35:30.969Z,100587.56
2023-02-14T06:38:19.671Z,100595.92
2023-02-14T06:40:51.218Z,100593.95
2023-02-14T06:43:28.369Z,100595.83
2023-02-14T06:46:18.154Z,100598.83
2023-02-14T06:49:06.834Z,100601.58
2023-02-14T06:51:55.416Z,100603.81
2023-02-14T06:54:44.006Z,100606.80
2023-02-14T06:57:32.595Z,100600.05
2023-02-14T07:00:05.929Z,100602.40
2023-02-14T07:02:54.589Z,100602.14
2023-02-14T07:05:45.259Z,100607.42
2023-02-14T07:08:33.834Z,100602.57
2023-02-14T07:11:22.467Z,100601.48
2023-02-14T07:14:13.339Z,100606.05
2023-02-14T07:17:01.946Z,100608.13
2023-02-14T07:19:50.600Z,100606.70
2023-02-14T07:22:39.587Z,100608.51
2023-02-14T07:25:28.218Z,100610.42
2023-02-14T07:27:59.555Z,100607.13
2023-02-14T07:30:48.369Z,100611.73
2023-02-14T07:33:37.122Z,100611.20
2023-02-14T07:36:25.781Z,100608.80
2023-02-14T07:39:14.522Z,100609.41
2023-02-14T07:42:03.233Z,100609.42
2023-02-14T07:44:51.886Z,100610.17
2023-02-14T07:47:40.496Z,100611.58
2023-02-14T07:50:30.440Z,100609.56
2023-02-14T07:53:19.074Z,100609.42
2023-02-14T07:56:07.920Z,100609.88
2023-02-14T07:58:39.364Z,100606.02
2023-02-14T08:01:28.121Z,100608.20
2023-02-14T08:04:17.118Z,100609.82
2023-02-14T08:07:05.743Z,100606.18
2023-02-14T08:09:54.388Z,100607.11
2023-02-14T08:13:01.393Z,100607.54
2023-02-14T08:16:05.198Z,100614.16
2023-02-14T08:18:37.598Z,100614.70
2023-02-14T08:21:26.366Z,100610.52
2023-02-14T08:23:57.749Z,100609.13
2023-02-14T08:26:46.403Z,100603.00
2023-02-14T08:29:35.084Z,100607.86
2023-02-14T08:32:23.931Z,100618.83
2023-02-14T08:35:12.684Z,100620.12
2023-02-14T08:38:01.848Z,100614.88
2023-02-14T08:40:50.415Z,100622.17
2023-02-14T08:43:39.237Z,100620.92
2023-02-14T08:46:28.070Z,100631.16
2023-02-14T08:49:16.686Z,100633.71
2023-02-14T08:52:05.769Z,100637.66
2023-02-14T08:54:54.434Z,100635.85
2023-02-14T08:57:43.060Z,100638.39
2023-02-14T09:00:33.133Z,100641.55
2023-02-14T09:03:21.803Z,100646.02
2023-02-14T09:06:16.203Z,100649.54
2023-02-14T09:09:05.139Z,100646.59
2023-02-14T09:11:55.537Z,100648.86
2023-02-14T09:14:44.695Z,100642.20
2023-02-14T09:17:33.591Z,100644.73
2023-02-14T09:20:22.838Z,100644.20
2023-02-14T09:23:11.458Z,100637.55
2023-02-14T09:26:02.866Z,100635.36
2023-02-14T09:28:51.596Z,100637.87
2023-02-14T09:31:40.311Z,100634.29
2023-02-14T09:34:47.609Z,100643.31
2023-02-14T09:37:54.499Z,100647.34
2023-02-14T09:40:43.167Z,100643.27
2023-02-14T09:43:37.883Z,100644.36
2023-02-14T09:46:28.245Z,100643.60
2023-02-14T09:49:40.268Z,100650.41
2023-02-14T09:52:30.553Z,100642.73
2023-02-14T09:55:19.870Z,100650.41
2023-02-14T09:58:05.602Z,100649.28
2023-02-14T10:00:53.531Z,100646.93
2023-02-14T10:04:01.193Z,100640.20
2023-02-14T10:06:54.657Z,100645.90
2023-02-14T10:09:55.621Z,100640.20
2023-02-14T10:12:49.828Z,100640.36
2023-02-14T10:15:39.728Z,100643.37
2023-02-14T10:18:36.350Z,100638.42
2023-02-14T10:21:31.011Z,100640.54
2023-02-14T10:24:24.693Z,100641.10
2023-02-14T10:27:32.160Z,100639.48
2023-02-14T10:30:23.325Z,100640.55
2023-02-14T10:33:16.846Z,100637.18
2023-02-14T10:36:17.055Z,100636.05
2023-02-14T10:39:21.180Z,100634.18
2023-02-14T10:42:19.913Z,100633.34
2023-02-14T10:45:20.283Z,100631.21
2023-02-14T10:48:18.966Z,100632.37
2023-02-14T10:51:16.634Z,100637.41
2023-02-14T10:54:18.809Z,100633.67
2023-02-14T10:57:15.026Z,100626.71
2023-02-14T11:00:10.180Z,100624.48
2023-02-14T11:03:00.926Z,100625.41
2023-02-14T11:05:49.962Z,100626.52
2023-02-14T11:08:40.216Z,100622.08
2023-02-14T11:11:34.517Z,100623.25
2023-02-14T11:14:24.642Z,100617.20
2023-02-14T11:17:27.963Z,100616.01
2023-02-14T11:20:25.615Z,100613.26
2023-02-14T11:23:24.096Z,100607.95
2023-02-14T11:26:22.357Z,100605.77
2023-02-14T11:29:14.600Z,100607.63
2023-02-14T11:32:13.222Z,100608.62
2023-02-14T11:35:04.361Z,100605.45
2023-02-14T11:37:56.557Z,100602.08
2023-02-14T11:40:45.346Z,100599.88
2023-02-14T11:43:36.453Z,100593.60
2023-02-14T11:46:29.493Z,100600.06
2023-02-14T11:49:28.179Z,100593.51
2023-02-14T11:52:18.913Z,100591.46
2023-02-14T11:55:21.975Z,100590.41
2023-02-14T11:58:31.111Z,100580.30
2023-02-14T12:01:25.286Z,100582.67
2023-02-14T12:04:18.372Z,100585.89
2023-02-14T12:07:17.955Z,100578.09
2023-02-14T12:10:20.220Z,100576.05
2023-02-14T12:13:25.236Z,100576.13
2023-02-14T12:16:21.976Z,100575.15
2023-02-14T12:19:20.899Z,100575.40
2023-02-14T12:22:12.701Z,100565.98
2023-02-14T12:25:12.047Z,100557.33
2023-02-14T12:28:06.800Z,100556.48
2023-02-14T12:30:55.509Z,100550.40
2023-02-14T12:33:46.535Z,100544.48
2023-02-14T12:36:51.866Z,100546.70
2023-02-14T12:39:53.775Z,100545.52
2023-02-14T12:43:00.151Z,100542.16
2023-02-14T12:46:04.421Z,100547.17
2023-02-14T12:49:14.439Z,100550.74
2023-02-14T12:52:18.414Z,100543.11
2023-02-14T12:55:28.060Z,100535.48
2023-02-14T12:58:29.837Z,100539.09
2023-02-14T13:01:39.034Z,100541.00
2023-02-14T13:05:01.211Z,100537.29
2023-02-14T13:08:03.547Z,100533.31
2023-02-14T13:11:01.060Z,100532.55
2023-02-14T13:14:03.617Z,100530.44
2023-02-14T13:16:57.881Z,100523.30
2023-02-14T13:19:50.178Z,100519.84
2023-02-14T13:22:41.430Z,100520.46
2023-02-14T13:25:35.450Z,100524.73
2023-02-14T13:28:26.116Z,100520.98
2023-02-14T13:31:15.508Z,100519.16
2023-02-14T13:34:00.089Z,100524.70
2023-02-14T13:36:49.147Z,100517.48
2023-02-14T13:39:43.460Z,100516.34
2023-02-14T13:42:51.223Z,100520.36
2023-02-14T13:45:55.884Z,100511.95
2023-02-14T13:49:19.422Z,100518.73
2023-02-14T13:52:10.313Z,100516.91
2023-02-14T13:55:03.050Z,100513.29
2023-02-14T13:58:03.947Z,100514.80
2023-02-14T14:00:53.793Z,100515.59
2023-02-14T14:03:57.206Z,100515.60
2023-02-14T14:07:26.264Z,100517.34
2023-02-14T14:10:35.293Z,100519.55
2023-02-14T14:13:57.759Z,100519.03
2023-02-14T14:16:58.073Z,100514.33
2023-02-14T14:19:47.259Z,100511.88
2023-02-14T14:22:47.076Z,100512.59
2023-02-14T14:25:40.313Z,100518.48
2023-02-14T14:28:32.750Z,100519.88
2023-02-14T14:31:21.648Z,100516.30
2023-02-14T14:34:17.565Z,100519.68
2023-02-14T14:37:14.785Z,100516.44
2023-02-14T14:40:06.283Z,100512.34
2023-02-14T14:42:59.585Z,100509.31
2023-02-14T14:45:51.949Z,100514.23
2023-02-14T14:48:44.111Z,100516.83
2023-02-14T14:51:35.272Z,100515.23
2023-02-14T14:54:34.754Z,100510.96
2023-02-14T14:57:23.405Z,100510.17
2023-02-14T15:00:21.460Z,100515.80
2023-02-14T15:03:16.593Z,100507.88
2023-02-14T15:06:09.400Z,100504.54
2023-02-14T15:08:58.007Z,100505.36
2023-02-14T15:12:06.087Z,100503.57
2023-02-14T15:14:55.361Z,100502.63
2023-02-14T15:17:46.514Z,100501.75
2023-02-14T15:20:36.204Z,100504.76
2023-02-14T15:23:19.565Z,100508.80
2023-02-14T15:26:07.577Z,100508.61
2023-02-14T15:28:58.760Z,100513.98
2023-02-14T15:31:48.296Z,100516.86
2023-02-14T15:34:37.261Z,100516.57
2023-02-14T15:37:26.711Z,100517.75
2023-02-14T15:40:21.980Z,100519.63
2023-02-14T15:43:24.502Z,100521.56
2023-02-14T15:46:25.562Z,100527.30
2023-02-14T15:49:20.043Z,100527.12
2023-02-14T15:52:13.981Z,100520.73
2023-02-14T15:55:02.641Z,100526.25
2023-02-14T15:57:55.897Z,100527.95
2023-02-14T16:00:45.059Z,100529.17
2023-02-14T16:03:37.866Z,100529.89
2023-02-14T16:06:35.662Z,100532.40
2023-02-14T16:09:27.444Z,100533.42
2023-02-14T16:12:29.836Z,100541.32
2023-02-14T16:15:21.590Z,100540.30
2023-02-14T16:18:04.031Z,100545.61
2023-02-14T16:20:53.441Z,100546.04
2023-02-14T16:23:43.926Z,100549.37
2023-02-14T16:26:33.455Z,100551.31
2023-02-14T16:29:22.189Z,100555.15
2023-02-14T16:32:17.728Z,100555.02
2023-02-14T16:35:10.156Z,100550.20
2023-02-14T16:37:51.692Z,100553.59
2023-02-14T16:40:43.898Z,100554.16
2023-02-14T16:43:33.171Z,100557.04
2023-02-14T16:46:23.606Z,100554.67
2023-02-14T16:49:12.695Z,100554.71
2023-02-14T16:52:01.452Z,100556.11
2023-02-14T16:54:50.196Z,100558.67
2023-02-14T16:57:43.668Z,100563.62
2023-02-14T17:00:32.308Z,100563.77
2023-02-14T17:03:21.343Z,100566.29
2023-02-14T17:06:12.738Z,100573.27
2023-02-14T17:09:06.528Z,100570.84
2023-02-14T17:11:58.018Z,100573.13
2023-02-14T17:14:51.132Z,100572.63
2023-02-14T17:17:39.891Z,100568.14
2023-02-14T17:20:30.053Z,100571.24
2023-02-14T17:23:19.563Z,100570.66
2023-02-14T17:26:08.677Z,100574.05
2023-02-14T17:28:57.568Z,100572.85
2023-02-14T17:31:46.266Z,100569.69
2023-02-14T17:34:34.936Z,100568.89
2023-02-14T17:37:23.872Z,100567.08
2023-02-14T17:40:14.316Z,100569.76
2023-02-14T17:42:48.318Z,100571.20
2023-02-14T17:45:37.084Z,100574.70
2023-02-14T17:48:26.404Z,100569.88
2023-02-14T17:51:16.647Z,100567.99
2023-02-14T17:53:54.135Z,100568.47
2023-02-14T17:56:42.765Z,100566.95
2023-02-14T17:59:32.144Z,100569.31
2023-02-14T18:02:20.704Z,100567.48
2023-02-14T18:05:09.295Z,100572.04
2023-02-14T18:07:58.119Z,100574.62
2023-02-14T18:10:46.651Z,100572.27
2023-02-14T18:13:36.325Z,100571.73
2023-02-14T18:16:25.280Z,100571.31
2023-02-14T18:18:54.489Z,100567.27
2023-02-14T18:21:34.985Z,100566.77
2023-02-14T18:24:23.898Z,100564.46
2023-02-14T18:27:15.271Z,100563.13
2023-02-14T18:30:04.908Z,100567.60
2023-02-14T18:32:53.600Z,100570.63
2023-02-14T18:35:42.285Z,100567.46
2023-02-14T18:38:30.977Z,100565.85
2023-02-14T18:41:20.537Z,100566.58
2023-02-14T18:43:59.880Z,100563.54
2023-02-14T18:46:48.422Z,100560.10
2023-02-14T18:49:37.193Z,100560.05
2023-02-14T18:52:26.142Z,100561.91
2023-02-14T18:55:15.395Z,100559.84
2023-02-14T18:58:07.542Z,100557.39
2023-02-14T19:00:57.174Z,100553.15
2023-02-14T19:03:46.232Z,100554.31
2023-02-14T19:06:37.408Z,100554.48
2023-02-14T19:09:27.499Z,100553.61
2023-02-14T19:12:16.106Z,100550.52
2023-02-14T19:15:05.959Z,100550.27
2023-02-14T19:17:55.308Z,100543.17
2023-02-14T19:20:44.263Z,100544.83
2023-02-14T19:23:16.651Z,100548.64
2023-02-14T19:26:12.995Z,100543.26
2023-02-14T19:29:04.082Z,100540.89
2023-02-14T19:31:54.602Z,100540.09
2023-02-14T19:34:27.221Z,100538.22
2023-02-14T19:37:16.737Z,100537.00
2023-02-14T19:40:09.684Z,100536.67
2023-02-14T19:42:58.920Z,100540.13
2023-02-14T19:45:47.687Z,100542.04
2023-02-14T19:48:36.429Z,100548.91
2023-02-14T19:51:27.313Z,100543.10
2023-02-14T19:54:15.894Z,100543.85
2023-02-14T19:57:04.789Z,100544.84
2023-02-14T19:59:53.739Z,100544.25
2023-02-14T20:02:47.384Z,100544.25
2023-02-14T20:05:28.021Z,100546.12
2023-02-14T20:08:17.492Z,100548.57
2023-02-14T20:10:49.176Z,100550.05
2023-02-14T20:13:37.754Z,100549.76
2023-02-14T20:16:28.063Z,100548.48
2023-02-14T20:19:16.049Z,100550.29
2023-02-14T20:22:07.604Z,100554.43
2023-02-14T20:24:56.198Z,100551.67
2023-02-14T20:27:45.850Z,100553.33
2023-02-14T20:30:34.758Z,100552.14
2023-02-14T20:33:23.576Z,100550.77
2023-02-14T20:36:12.557Z,100543.55
2023-02-14T20:39:04.172Z,100547.81
2023-02-14T20:41:53.439Z,100551.14
2023-02-14T20:44:24.576Z,100547.94
2023-02-14T20:47:13.655Z,100542.73
2023-02-14T20:50:03.316Z,100552.67
2023-02-14T20:52:51.931Z,100547.71
2023-02-14T20:55:43.793Z,100550.34
2023-02-14T20:58:32.891Z,100543.40
2023-02-14T21:01:23.405Z,100542.90
2023-02-14T21:04:13.225Z,100542.41
2023-02-14T21:07:22.403Z,100543.77
2023-02-14T21:10:13.752Z,100545.55
2023-02-14T21:12:52.424Z,100541.39
2023-02-14T21:15:41.195Z,100540.91
2023-02-14T21:18:30.539Z,100540.17
2023-02-14T21:21:21.768Z,100535.10
2023-02-14T21:24:12.365Z,100530.92
2023-02-14T21:27:01.055Z,100528.77
2023-02-14T21:29:52.284Z,100528.60
2023-02-14T21:32:40.926Z,100525.17
2023-02-14T21:35:29.718Z,100525.70
2023-02-14T21:38:18.329Z,100526.52
2023-02-14T21:41:09.386Z,100522.17
2023-02-14T21:43:59.888Z,100515.68
2023-02-14T21:46:48.518Z,100511.92
2023-02-14T21:49:55.192Z,100514.49
2023-02-14T21:52:43.892Z,100510.73
2023-02-14T21:55:32.660Z,100509.18
2023-02-14T21:58:21.203Z,100506.36
2023-02-14T22:01:15.860Z,100507.30
2023-02-14T22:04:08.259Z,100506.17
2023-02-14T22:06:56.980Z,100503.80
2023-02-14T22:09:45.608Z,100499.24
2023-02-14T22:12:34.155Z,100501.48
2023-02-14T22:15:22.899Z,100499.40
2023-02-14T22:18:11.587Z,100496.90
2023-02-14T22:21:02.069Z,100497.80
2023-02-14T22:23:51.173Z,100490.44
2023-02-14T22:26:40.304Z,100490.40
2023-02-14T22:29:28.889Z,100487.14
2023-02-14T22:32:17.578Z,100489.41
2023-02-14T22:35:07.496Z,100489.54
2023-02-14T22:37:56.484Z,100484.14
2023-02-14T22:40:45.479Z,100486.67
2023-02-14T22:43:34.544Z,100486.41
2023-02-14T22:46:25.406Z,100485.71
2023-02-14T22:49:14.252Z,100484.34
2023-02-14T22:52:02.902Z,100486.52
2023-02-14T22:54:53.378Z,100486.21
2023-02-14T22:57:42.213Z,100485.80
2023-02-14T23:00:30.830Z,100488.25
2023-02-14T23:03:19.411Z,100486.98
2023-02-14T23:06:08.071Z,100487.33
2023-02-14T23:08:56.966Z,100488.40
2023-02-14T23:11:47.179Z,100487.33
2023-02-14T23:14:54.524Z,100484.44
2023-02-14T23:18:01.535Z,100480.54
2023-02-14T23:21:11.092Z,100478.41
2023-02-14T23:23:59.673Z,100475.57
2023-02-14T23:26:30.944Z,100474.23
2023-02-14T23:29:19.498Z,100470.81
2023-02-14T23:32:09.068Z,100470.90
2023-02-14T23:34:58.528Z,100467.31
2023-02-14T23:37:47.256Z,100465.02
2023-02-14T23:40:50.799Z,100465.56
2023-02-14T23:43:39.388Z,100459.28
2023-02-14T23:46:27.983Z,100464.30
2023-02-14T23:49:17.388Z,100462.09
2023-02-14T23:52:07.436Z,100462.26
2023-02-14T23:54:55.973Z,100460.32
2023-02-14T23:57:44.865Z,100460.39
